Time;durP1;ratioP1;P1;durP2;ratioP2;P2;SDS_P1;SDS_P2;PMS_P1;PMS_P2;Temp;Humidity;BMP_temperature;BMP_pressure;BME280_temperature;BME280_humidity;BME280_pressure;Samples;Min_cycle;Max_cycle;Signal;HPM_P1;HPM_P2
2023/07/05 00:02:13;;;;;;;6.13;2.60;;;;;;;19.18;100.00;99550.63;5004158;28;20233;-69
2023/07/05 00:04:38;;;;;;;6.53;2.40;;;;;;;19.05;100.00;99576.28;5012560;28;20190;-69
2023/07/05 00:07:04;;;;;;;8.47;3.40;;;;;;;18.46;100.00;99585.34;5014020;28;20224;-68
2023/07/05 00:09:29;;;;;;;6.90;3.30;;;;;;;17.74;100.00;99543.53;5011297;28;20178;-67
2023/07/05 00:11:56;;;;;;;16.83;4.63;;;;;;;16.88;100.00;99469.06;5017822;28;20217;-68
2023/07/05 00:14:21;;;;;;;6.10;3.63;;;;;;;16.42;100.00;99490.44;5013041;28;20584;-66
2023/07/05 00:16:47;;;;;;;8.50;3.77;;;;;;;16.19;100.00;99496.84;5013777;28;20233;-66
2023/07/05 00:19:13;;;;;;;6.20;3.90;;;;;;;16.08;100.00;99495.19;5012358;28;20571;-66
2023/07/05 00:21:38;;;;;;;16.13;4.57;;;;;;;15.94;100.00;99492.00;5005175;28;20284;-65
2023/07/05 00:24:03;;;;;;;9.10;4.33;;;;;;;16.05;100.00;99485.06;5014713;28;20609;-66
2023/07/05 00:26:29;;;;;;;7.17;4.07;;;;;;;15.91;100.00;99478.47;5012752;28;20283;-65
2023/07/05 00:28:54;;;;;;;9.00;3.93;;;;;;;15.85;100.00;99477.25;5014210;28;20277;-65
2023/07/05 00:31:19;;;;;;;9.80;4.07;;;;;;;15.72;100.00;99487.00;5013161;28;20221;-65
2023/07/05 00:33:44;;;;;;;3.93;3.50;;;;;;;15.69;100.00;99493.28;5006930;28;20186;-65
2023/07/05 00:36:10;;;;;;;6.57;3.63;;;;;;;15.68;100.00;99490.78;4998916;28;20211;-65
2023/07/05 00:38:35;;;;;;;6.17;3.50;;;;;;;15.65;100.00;99497.91;4994523;28;20191;-65
2023/07/05 00:41:00;;;;;;;9.30;3.70;;;;;;;15.64;100.00;99491.06;4991953;28;20388;-65
2023/07/05 00:43:25;;;;;;;5.10;3.23;;;;;;;15.71;100.00;99486.16;4993309;28;20612;-65
2023/07/05 00:45:56;;;;;;;4.70;2.80;;;;;;;15.68;100.00;99477.84;4994181;28;20191;-64
2023/07/05 00:48:25;;;;;;;9.43;3.73;;;;;;;15.74;100.00;99469.53;4982606;28;20182;-65
2023/07/05 00:50:54;;;;;;;4.60;2.80;;;;;;;15.61;100.00;99468.00;4990679;28;20234;-65
2023/07/05 00:53:20;;;;;;;6.70;3.37;;;;;;;15.58;100.00;99460.50;5003540;28;20183;-65
2023/07/05 00:55:52;;;;;;;10.40;3.30;;;;;;;15.58;100.00;99457.06;4993677;28;20183;-65
2023/07/05 00:58:21;;;;;;;4.13;3.63;;;;;;;15.68;100.00;99454.50;4992900;28;20187;-66
2023/07/05 01:00:47;;;;;;;5.50;3.30;;;;;;;15.77;100.00;99457.13;5005026;28;20933;-65
2023/07/05 01:03:16;;;;;;;3.70;3.40;;;;;;;15.95;100.00;99459.09;5023139;28;20187;-65
2023/07/05 01:05:42;;;;;;;7.23;3.50;;;;;;;15.94;100.00;99458.28;5012071;28;20182;-65
2023/07/05 01:08:08;;;;;;;5.63;3.10;;;;;;;15.84;100.00;99461.81;5010503;28;20183;-66
2023/07/05 01:10:34;;;;;;;4.37;3.17;;;;;;;15.79;100.00;99455.22;5005111;28;20222;-66
2023/07/05 01:13:11;;;;;;;7.90;3.47;;;;;;;15.77;100.00;99451.94;5023880;28;20186;-66
2023/07/05 01:16:00;;;;;;;6.10;3.43;;;;;;;15.86;100.00;99446.94;5011285;28;20205;-66
2023/07/05 01:18:40;;;;;;;5.70;3.13;;;;;;;15.97;100.00;99447.63;5011258;28;20588;-66
2023/07/05 01:21:43;;;;;;;6.50;3.60;;;;;;;16.03;100.00;99437.69;5010549;28;20229;-67
2023/07/05 01:24:48;;;;;;;4.87;3.23;;;;;;;16.00;100.00;99441.38;4992495;28;20638;-66
2023/07/05 01:27:36;;;;;;;7.20;4.10;;;;;;;16.10;100.00;99449.16;5011938;28;20750;-67
2023/07/05 01:30:20;;;;;;;7.03;3.37;;;;;;;16.23;100.00;99459.28;4996761;28;20180;-67
2023/07/05 01:32:56;;;;;;;6.80;3.57;;;;;;;16.30;100.00;99462.97;4963846;28;20262;-67
2023/07/05 01:35:27;;;;;;;3.87;3.47;;;;;;;16.23;100.00;99451.50;4973793;28;20270;-66
2023/07/05 01:37:52;;;;;;;7.80;3.00;;;;;;;16.20;100.00;99452.59;4974863;28;20192;-66
2023/07/05 01:40:21;;;;;;;4.60;3.10;;;;;;;16.23;100.00;99447.09;4984688;28;20257;-66
2023/07/05 01:42:50;;;;;;;5.07;3.47;;;;;;;16.33;100.00;99444.53;5025882;28;20229;-66
2023/07/05 01:45:19;;;;;;;10.10;3.90;;;;;;;16.24;100.00;99445.34;5010476;28;20179;-66
2023/07/05 01:48:03;;;;;;;4.97;3.80;;;;;;;16.22;100.00;99450.66;5002330;28;20221;-66
2023/07/05 01:50:34;;;;;;;5.33;3.10;;;;;;;16.17;100.00;99446.84;5000870;28;20757;-66
2023/07/05 01:53:08;;;;;;;4.47;3.20;;;;;;;16.05;100.00;99446.97;5003678;28;20180;-66
2023/07/05 01:55:41;;;;;;;8.17;3.40;;;;;;;16.03;100.00;99446.28;5005533;28;20202;-66
2023/07/05 01:58:13;;;;;;;5.93;3.43;;;;;;;15.82;100.00;99448.97;4993028;28;20191;-66
2023/07/05 02:00:41;;;;;;;3.93;3.13;;;;;;;15.83;100.00;99445.44;4987852;28;20226;-65
2023/07/05 02:03:14;;;;;;;7.70;3.27;;;;;;;15.93;100.00;99450.66;5015797;28;20693;-65
2023/07/05 02:05:40;;;;;;;5.83;2.40;;;;;;;15.89;100.00;99439.72;5001846;28;20258;-65
2023/07/05 02:08:05;;;;;;;3.33;2.60;;;;;;;15.85;100.00;99447.91;4996656;28;20315;-65
2023/07/05 02:10:32;;;;;;;3.67;2.70;;;;;;;15.75;100.00;99446.09;4984585;28;20237;-65
2023/07/05 02:12:59;;;;;;;2.83;2.53;;;;;;;15.73;100.00;99444.56;5004077;28;20196;-65
2023/07/05 02:15:24;;;;;;;3.40;2.30;;;;;;;15.65;100.00;99435.69;4992386;28;20278;-64
2023/07/05 02:17:49;;;;;;;3.63;2.53;;;;;;;15.72;100.00;99435.16;4992291;28;20180;-65
2023/07/05 02:20:15;;;;;;;4.30;2.10;;;;;;;15.74;100.00;99428.88;4984122;28;20498;-64
2023/07/05 02:22:41;;;;;;;5.13;2.63;;;;;;;15.78;100.00;99425.06;5008651;28;20201;-65
2023/07/05 02:25:06;;;;;;;3.43;2.93;;;;;;;15.76;100.00;99424.34;5011878;28;20199;-65
2023/07/05 02:27:32;;;;;;;3.00;2.70;;;;;;;15.79;100.00;99423.31;4998673;28;20230;-66
2023/07/05 02:29:57;;;;;;;5.27;2.90;;;;;;;15.76;100.00;99414.00;5011993;28;20619;-66
2023/07/05 02:32:24;;;;;;;3.23;2.90;;;;;;;15.81;100.00;99417.03;5016917;28;20284;-66
2023/07/05 02:34:49;;;;;;;3.77;2.50;;;;;;;15.78;100.00;99427.66;5011099;28;20195;-66
2023/07/05 02:37:15;;;;;;;4.20;2.60;;;;;;;15.81;100.00;99417.03;5006893;28;20188;-66
2023/07/05 02:39:41;;;;;;;3.00;2.70;;;;;;;15.82;100.00;99408.31;5007350;28;20195;-66
2023/07/05 02:42:07;;;;;;;5.10;2.53;;;;;;;15.82;100.00;99399.72;5016695;28;20225;-66
2023/07/05 02:44:33;;;;;;;3.37;2.53;;;;;;;15.88;100.00;99401.78;5008320;28;20547;-66
2023/07/05 02:46:58;;;;;;;3.47;2.53;;;;;;;15.97;100.00;99397.53;5010909;28;20195;-66
2023/07/05 02:49:23;;;;;;;5.13;2.90;;;;;;;16.00;100.00;99399.03;5009506;28;20222;-66
2023/07/05 02:51:49;;;;;;;3.40;2.83;;;;;;;16.01;100.00;99403.28;5013828;28;20283;-66
2023/07/05 02:54:14;;;;;;;4.03;2.60;;;;;;;15.93;100.00;99389.22;5010354;28;20647;-66
2023/07/05 02:56:39;;;;;;;5.17;2.57;;;;;;;15.96;100.00;99382.94;5010683;28;20182;-67
2023/07/05 02:59:04;;;;;;;4.67;2.40;;;;;;;16.01;100.00;99370.38;5009013;28;20198;-67
2023/07/05 03:01:30;;;;;;;2.80;2.57;;;;;;;16.02;100.00;99366.00;4992290;28;20601;-67
2023/07/05 03:03:55;;;;;;;3.90;2.80;;;;;;;16.00;100.00;99354.94;5013328;28;20190;-66
2023/07/05 03:06:20;;;;;;;3.10;2.53;;;;;;;16.04;100.00;99345.91;5009697;28;20615;-66
2023/07/05 03:08:46;;;;;;;4.60;3.00;;;;;;;16.06;100.00;99331.06;5009044;28;20186;-66
2023/07/05 03:11:12;;;;;;;4.53;2.70;;;;;;;16.08;100.00;99347.31;5009452;28;20222;-67
2023/07/05 03:13:37;;;;;;;3.03;2.57;;;;;;;16.09;100.00;99367.91;5015281;28;20302;-67
2023/07/05 03:16:03;;;;;;;3.40;2.43;;;;;;;16.13;100.00;99358.88;5000341;28;20328;-67
2023/07/05 03:18:29;;;;;;;2.80;2.50;;;;;;;16.14;100.00;99376.09;4986781;28;20192;-66
2023/07/05 03:20:55;;;;;;;3.60;2.70;;;;;;;16.20;100.00;99386.88;4988692;28;20238;-67
2023/07/05 03:23:21;;;;;;;3.23;2.77;;;;;;;16.26;100.00;99394.94;4991942;28;20229;-67
2023/07/05 03:25:55;;;;;;;3.30;2.30;;;;;;;16.34;100.00;99385.66;5010087;28;20189;-66
2023/07/05 03:28:20;;;;;;;4.77;2.53;;;;;;;16.43;100.00;99387.41;5007757;28;20626;-67
2023/07/05 03:31:01;;;;;;;4.43;2.60;;;;;;;16.34;100.00;99383.88;4968608;28;20233;-67
2023/07/05 03:33:26;;;;;;;3.97;2.37;;;;;;;16.36;100.00;99383.72;4993824;28;20597;-67
2023/07/05 03:35:59;;;;;;;10.63;2.20;;;;;;;16.41;100.00;99379.78;4976393;28;20286;-67
2023/07/05 03:38:27;;;;;;;3.53;2.60;;;;;;;16.55;100.00;99378.50;4977038;28;20188;-66
2023/07/05 03:41:00;;;;;;;3.10;2.50;;;;;;;16.49;100.00;99380.84;4979941;28;20252;-67
2023/07/05 03:43:27;;;;;;;2.83;2.27;;;;;;;16.51;100.00;99376.31;5003514;28;20187;-66
2023/07/05 03:45:53;;;;;;;3.40;2.10;;;;;;;16.49;100.00;99379.06;4995687;28;20176;-68
2023/07/05 03:48:19;;;;;;;3.90;2.50;;;;;;;16.59;100.00;99369.47;4995707;28;20203;-67
2023/07/05 03:50:45;;;;;;;2.33;2.13;;;;;;;16.61;100.00;99364.97;4990925;28;20238;-67
2023/07/05 03:53:10;;;;;;;3.07;2.10;;;;;;;16.63;100.00;99370.00;5005307;28;20310;-66
2023/07/05 03:55:36;;;;;;;3.90;2.50;;;;;;;16.62;100.00;99371.81;4994665;28;20190;-67
2023/07/05 03:58:02;;;;;;;5.90;2.47;;;;;;;16.75;100.00;99378.47;4995422;28;20269;-67
2023/07/05 04:00:27;;;;;;;3.83;1.90;;;;;;;16.84;100.00;99377.59;4987004;28;20685;-67
2023/07/05 04:02:53;;;;;;;5.60;2.40;;;;;;;16.98;100.00;99380.72;5007445;28;20187;-67
2023/07/05 04:05:18;;;;;;;2.70;2.27;;;;;;;16.91;100.00;99381.31;4995530;28;20183;-67
2023/07/05 04:07:43;;;;;;;4.27;2.30;;;;;;;16.80;100.00;99376.25;4995117;28;20647;-67
2023/07/05 04:10:09;;;;;;;3.10;2.47;;;;;;;16.78;100.00;99371.22;4992870;28;20709;-66
2023/07/05 04:12:34;;;;;;;3.90;2.40;;;;;;;16.87;100.00;99371.31;5017994;28;20187;-67
2023/07/05 04:15:00;;;;;;;2.37;1.87;;;;;;;16.85;100.00;99371.44;5000391;28;20186;-67
2023/07/05 04:17:31;;;;;;;3.70;2.30;;;;;;;16.83;100.00;99370.78;5013969;28;20636;-67
2023/07/05 04:19:57;;;;;;;4.53;2.30;;;;;;;16.82;100.00;99378.72;5012085;28;20244;-67
2023/07/05 04:22:23;;;;;;;5.70;2.00;;;;;;;16.83;100.00;99373.41;5012566;28;20729;-67
2023/07/05 04:24:48;;;;;;;3.00;2.07;;;;;;;16.88;100.00;99359.97;5007208;28;20190;-67
2023/07/05 04:27:15;;;;;;;4.63;2.13;;;;;;;16.92;100.00;99358.75;5014133;28;20234;-67
2023/07/05 04:29:40;;;;;;;4.83;2.17;;;;;;;17.05;100.00;99351.44;5012979;28;20229;-67
2023/07/05 04:32:06;;;;;;;2.57;2.00;;;;;;;17.18;100.00;99369.31;5019665;28;20598;-68
2023/07/05 04:34:32;;;;;;;4.37;2.10;;;;;;;17.29;100.00;99368.31;5000162;28;20419;-67
2023/07/05 04:36:57;;;;;;;3.60;1.97;;;;;;;17.53;100.00;99377.34;5007393;28;20214;-68
2023/07/05 04:39:22;;;;;;;1.77;1.67;;;;;;;17.52;100.00;99389.50;5007549;28;20657;-68
2023/07/05 04:41:47;;;;;;;4.47;2.10;;;;;;;17.63;100.00;99403.28;5010390;28;20227;-69
2023/07/05 04:44:13;;;;;;;2.10;1.70;;;;;;;17.77;100.00;99412.34;4996093;28;20419;-69
2023/07/05 04:46:38;;;;;;;3.07;1.70;;;;;;;17.84;100.00;99411.59;4995014;28;20557;-70
2023/07/05 04:49:03;;;;;;;3.53;2.00;;;;;;;18.02;100.00;99419.47;4994293;28;20188;-70
2023/07/05 04:51:28;;;;;;;8.70;2.20;;;;;;;18.09;100.00;99413.66;4994999;28;20263;-70
2023/07/05 04:53:54;;;;;;;2.87;1.53;;;;;;;18.23;100.00;99424.38;4992802;28;20191;-69
2023/07/05 04:56:19;;;;;;;3.17;1.30;;;;;;;18.43;100.00;99436.38;4993288;28;20245;-70
2023/07/05 04:58:48;;;;;;;4.00;1.50;;;;;;;18.65;100.00;99440.28;4994391;28;20612;-70
2023/07/05 05:01:13;;;;;;;3.73;1.90;;;;;;;18.77;100.00;99431.25;4981155;28;20231;-71
2023/07/05 05:03:39;;;;;;;3.30;1.77;;;;;;;19.10;100.00;99431.50;5000478;28;20179;-70
2023/07/05 05:06:04;;;;;;;2.60;1.67;;;;;;;18.93;100.00;99434.97;4993650;28;20186;-70
2023/07/05 05:08:30;;;;;;;3.23;1.57;;;;;;;18.73;100.00;99444.75;4993767;28;20183;-69
2023/07/05 05:10:58;;;;;;;4.43;2.03;;;;;;;18.52;100.00;99451.94;4990256;28;20309;-70
2023/07/05 05:13:24;;;;;;;3.53;2.10;;;;;;;18.20;100.00;99437.66;4992564;28;20179;-70
2023/07/05 05:15:50;;;;;;;3.63;2.13;;;;;;;18.21;100.00;99438.50;5008539;28;20596;-71
2023/07/05 05:18:15;;;;;;;5.07;2.60;;;;;;;17.92;100.00;99452.50;4993607;28;20187;-68
2023/07/05 05:20:41;;;;;;;4.10;2.73;;;;;;;17.88;100.00;99440.75;4988853;28;20667;-70
2023/07/05 05:23:06;;;;;;;3.97;2.50;;;;;;;17.74;100.00;99450.69;5004858;28;20321;-70
2023/07/05 05:25:33;;;;;;;3.90;2.43;;;;;;;17.69;100.00;99442.50;4993752;28;20580;-70
2023/07/05 05:27:58;;;;;;;3.60;2.50;;;;;;;17.56;100.00;99440.25;5006405;28;20591;-70
2023/07/05 05:30:25;;;;;;;2.87;2.27;;;;;;;17.53;100.00;99444.94;4991082;28;20273;-69
2023/07/05 05:32:50;;;;;;;3.47;2.80;;;;;;;17.53;100.00;99445.75;5011518;28;20285;-69
2023/07/05 05:35:16;;;;;;;3.10;2.47;;;;;;;17.53;100.00;99453.53;4993326;28;20658;-69
2023/07/05 05:37:42;;;;;;;3.97;2.53;;;;;;;17.73;100.00;99458.66;4993577;28;20172;-70
2023/07/05 05:40:08;;;;;;;3.33;2.50;;;;;;;17.97;100.00;99465.91;4988423;28;20225;-70
2023/07/05 05:42:34;;;;;;;4.50;2.57;;;;;;;18.10;100.00;99467.31;5014575;28;20194;-70
2023/07/05 05:44:59;;;;;;;6.90;3.03;;;;;;;18.19;100.00;99477.69;4991642;28;20191;-70
2023/07/05 05:47:25;;;;;;;4.00;2.77;;;;;;;18.31;100.00;99485.28;5005941;28;20225;-69
2023/07/05 05:49:50;;;;;;;3.20;2.67;;;;;;;18.65;100.00;99493.19;5006382;28;20179;-69
2023/07/05 05:52:15;;;;;;;2.83;2.50;;;;;;;19.13;100.00;99490.31;4997660;28;20230;-70
2023/07/05 05:54:40;;;;;;;4.97;2.30;;;;;;;19.81;100.00;99488.66;4991300;28;20225;-69
2023/07/05 05:57:06;;;;;;;3.00;2.70;;;;;;;20.09;100.00;99498.84;4993353;28;20217;-69
2023/07/05 05:59:32;;;;;;;7.10;3.13;;;;;;;19.97;100.00;99493.09;4993088;28;20281;-70
2023/07/05 06:01:57;;;;;;;8.73;3.00;;;;;;;19.68;100.00;99512.56;4997865;28;20222;-70
2023/07/05 06:04:22;;;;;;;3.03;2.83;;;;;;;19.14;100.00;99518.81;4992723;28;20198;-68
2023/07/05 06:06:47;;;;;;;4.63;2.80;;;;;;;18.96;100.00;99524.06;4993081;28;20214;-69
2023/07/05 06:09:17;;;;;;;3.33;3.03;;;;;;;19.49;100.00;99522.28;4993289;28;20414;-69
2023/07/05 06:11:42;;;;;;;3.50;2.63;;;;;;;19.48;100.00;99531.06;4995253;28;20559;-69
2023/07/05 06:14:08;;;;;;;5.80;2.57;;;;;;;19.21;100.00;99533.84;5007542;28;20187;-69
2023/07/05 06:16:33;;;;;;;4.60;3.13;;;;;;;19.38;100.00;99540.81;4994322;28;20197;-69
2023/07/05 06:18:59;;;;;;;4.10;3.27;;;;;;;19.09;100.00;99552.38;5009429;28;20179;-69
2023/07/05 06:21:24;;;;;;;4.07;3.33;;;;;;;18.80;100.00;99549.97;5009714;28;20299;-69
2023/07/05 06:23:50;;;;;;;4.33;3.47;;;;;;;18.41;100.00;99564.13;4997157;28;20209;-69
2023/07/05 06:26:18;;;;;;;3.90;3.53;;;;;;;18.82;100.00;99571.50;5011607;28;20202;-69
2023/07/05 06:28:43;;;;;;;4.63;3.60;;;;;;;19.84;100.00;99575.28;5011890;28;20230;-70
2023/07/05 06:31:12;;;;;;;4.77;3.50;;;;;;;20.80;93.19;99580.25;5010412;28;20575;-70
2023/07/05 06:33:38;;;;;;;5.40;3.70;;;;;;;20.08;89.70;99584.19;5017876;28;20704;-70
2023/07/05 06:36:05;;;;;;;4.20;3.70;;;;;;;21.19;81.69;99579.59;5011581;28;20705;-70
2023/07/05 06:38:30;;;;;;;4.30;3.90;;;;;;;22.02;70.37;99577.59;4995984;28;20194;-69
2023/07/05 06:40:56;;;;;;;5.77;3.63;;;;;;;22.98;69.81;99592.22;5001883;28;20222;-69
2023/07/05 06:43:23;;;;;;;4.30;3.80;;;;;;;23.56;63.29;99592.50;5019427;28;20182;-69
2023/07/05 06:45:51;;;;;;;4.90;3.93;;;;;;;23.55;60.98;99592.69;5010652;28;20190;-69
2023/07/05 06:48:16;;;;;;;4.90;4.17;;;;;;;24.25;53.31;99599.25;5010767;28;20218;-69
2023/07/05 06:50:42;;;;;;;7.53;3.87;;;;;;;24.23;49.92;99606.50;5005468;28;20712;-69
2023/07/05 06:53:07;;;;;;;6.03;3.90;;;;;;;22.92;57.05;99609.47;5020670;28;20190;-69
2023/07/05 06:55:32;;;;;;;5.83;3.57;;;;;;;21.27;73.61;99618.00;5010560;28;20218;-69
2023/07/05 06:57:58;;;;;;;6.30;4.57;;;;;;;21.14;74.07;99621.13;5011014;28;20190;-70
2023/07/05 07:00:23;;;;;;;8.87;3.70;;;;;;;22.24;67.21;99622.34;4978828;28;20231;-68
2023/07/05 07:02:48;;;;;;;9.87;3.67;;;;;;;23.15;56.95;99629.63;4990797;28;20218;-69
2023/07/05 07:05:15;;;;;;;6.23;3.50;;;;;;;23.57;52.97;99628.25;5004193;28;20223;-69
2023/07/05 07:07:40;;;;;;;5.20;3.60;;;;;;;24.68;50.07;99635.28;4992398;28;20204;-70
2023/07/05 07:10:06;;;;;;;5.17;3.37;;;;;;;24.46;45.15;99642.31;4982941;28;20583;-69
2023/07/05 07:12:31;;;;;;;4.63;3.23;;;;;;;23.43;47.29;99637.75;5006410;28;20183;-70
2023/07/05 07:14:56;;;;;;;5.43;3.70;;;;;;;22.64;50.11;99630.97;5004781;28;20202;-70
2023/07/05 07:17:22;;;;;;;3.70;3.40;;;;;;;22.83;49.13;99642.78;4997348;28;20222;-70
2023/07/05 07:19:47;;;;;;;4.50;3.53;;;;;;;23.23;49.73;99640.06;4990553;28;20179;-69
2023/07/05 07:22:15;;;;;;;5.07;3.70;;;;;;;23.70;48.20;99661.75;4989998;28;20227;-68
2023/07/05 07:24:40;;;;;;;4.07;2.67;;;;;;;23.57;46.84;99672.06;4990073;28;20187;-69
2023/07/05 07:27:06;;;;;;;5.33;3.03;;;;;;;24.39;43.67;99683.50;5006524;28;20226;-69
2023/07/05 07:29:31;;;;;;;5.63;2.93;;;;;;;24.58;40.98;99674.19;4999294;28;20199;-69
2023/07/05 07:31:56;;;;;;;3.75;2.53;;;;;;;25.79;37.98;99681.34;4970502;28;20322;-69
2023/07/05 07:34:23;;;;;;;4.97;3.03;;;;;;;25.49;40.59;99680.72;4984924;28;20594;-69
2023/07/05 07:36:48;;;;;;;4.40;2.75;;;;;;;26.57;36.61;99696.91;4995349;28;20266;-69
2023/07/05 07:39:14;;;;;;;5.93;2.95;;;;;;;25.68;38.37;99692.44;5003890;28;20249;-69
2023/07/05 07:41:39;;;;;;;5.38;2.97;;;;;;;25.54;39.26;99697.59;5002223;28;20222;-69
2023/07/05 07:44:07;;;;;;;4.07;2.80;;;;;;;25.11;40.26;99702.88;5013728;28;20186;-69
2023/07/05 07:46:33;;;;;;;5.65;2.85;;;;;;;25.51;39.06;99705.84;5010628;28;20201;-69
2023/07/05 07:49:00;;;;;;;7.20;3.22;;;;;;;25.28;38.65;99701.63;5011023;28;20605;-68
2023/07/05 07:51:30;;;;;;;3.38;2.78;;;;;;;23.55;43.23;99709.00;5011146;28;20260;-69
2023/07/05 07:53:55;;;;;;;7.18;3.22;;;;;;;25.07;41.49;99720.06;5015214;28;20218;-69
2023/07/05 07:56:23;;;;;;;3.10;2.40;;;;;;;25.59;39.69;99728.63;5008917;28;20670;-68
2023/07/05 07:58:51;;;;;;;4.93;2.75;;;;;;;26.98;35.97;99737.44;5010131;28;20219;-69
2023/07/05 08:01:18;;;;;;;7.43;2.90;;;;;;;27.53;34.86;99737.28;5008799;28;20587;-69
2023/07/05 08:03:44;;;;;;;4.22;2.88;;;;;;;25.53;38.14;99738.09;5014324;28;20227;-70
2023/07/05 08:06:10;;;;;;;5.57;2.95;;;;;;;23.50;43.24;99746.28;5009242;28;20581;-70
2023/07/05 08:08:37;;;;;;;5.28;2.55;;;;;;;22.16;47.60;99740.25;5008969;28;20183;-69
2023/07/05 08:11:04;;;;;;;4.23;2.53;;;;;;;22.24;50.62;99756.75;5007106;28;20222;-70
2023/07/05 08:13:30;;;;;;;3.37;2.80;;;;;;;21.70;53.01;99759.94;5015513;28;20261;-69
2023/07/05 08:15:59;;;;;;;4.20;2.60;;;;;;;20.35;60.52;99761.72;5007823;28;20638;-70
2023/07/05 08:18:25;;;;;;;2.77;2.53;;;;;;;21.89;56.45;99744.88;5011152;28;20723;-70
2023/07/05 08:20:51;;;;;;;4.03;2.53;;;;;;;24.45;41.13;99756.38;4986065;28;20262;-68
2023/07/05 08:23:16;;;;;;;2.87;2.57;;;;;;;26.09;38.37;99739.91;5003381;28;20188;-68
2023/07/05 08:25:43;;;;;;;3.17;2.53;;;;;;;26.02;37.06;99754.03;5010804;28;20191;-69
2023/07/05 08:28:11;;;;;;;5.00;2.45;;;;;;;24.97;37.82;99749.31;5011198;28;20234;-68
2023/07/05 08:30:38;;;;;;;3.30;2.35;;;;;;;26.17;36.62;99752.13;5006606;28;20249;-69
2023/07/05 08:33:04;;;;;;;6.15;2.00;;;;;;;27.78;33.97;99751.69;5021644;28;20191;-69
2023/07/05 08:35:31;;;;;;;2.45;2.25;;;;;;;27.65;33.88;99755.19;5011975;28;20203;-70
2023/07/05 08:37:56;;;;;;;5.95;2.67;;;;;;;28.50;31.90;99764.94;5003300;28;20175;-69
2023/07/05 08:40:21;;;;;;;3.92;2.30;;;;;;;29.74;30.71;99761.13;4998274;28;20707;-69
2023/07/05 08:43:16;;;;;;;4.40;1.77;;;;;;;28.36;31.17;99769.47;5007208;28;20596;-69
2023/07/05 08:45:45;;;;;;;2.40;1.80;;;;;;;28.67;31.30;99778.53;4988778;28;20250;-70
2023/07/05 08:48:15;;;;;;;1.70;1.60;;;;;;;30.03;29.84;99778.22;4994381;28;20273;-70
2023/07/05 08:50:50;;;;;;;4.47;2.20;;;;;;;28.72;30.96;99802.53;4989341;28;20281;-69
2023/07/05 08:53:20;;;;;;;3.60;2.08;;;;;;;27.63;31.31;99791.53;5010726;28;20185;-70
2023/07/05 08:55:58;;;;;;;2.58;1.98;;;;;;;25.84;34.22;99783.47;5012737;28;20182;-70
2023/07/05 08:58:26;;;;;;;3.97;2.20;;;;;;;25.85;35.79;99785.94;5013641;28;20191;-69
2023/07/05 09:01:00;;;;;;;2.95;1.70;;;;;;;26.96;33.53;99779.03;5009818;28;20708;-70
2023/07/05 09:03:31;;;;;;;2.33;1.88;;;;;;;26.44;33.26;99783.09;5021528;28;20634;-70
2023/07/05 09:06:14;;;;;;;1.90;1.60;;;;;;;27.20;34.55;99793.50;5011615;28;20182;-69
2023/07/05 09:09:19;;;;;;;3.08;1.50;;;;;;;27.86;31.46;99796.41;5000204;28;20671;-69
2023/07/05 09:12:03;;;;;;;3.45;1.95;;;;;;;26.86;32.87;99800.53;4962694;28;20236;-69
2023/07/05 09:14:41;;;;;;;2.65;1.73;;;;;;;27.93;33.07;99799.03;4980865;28;20286;-70
2023/07/05 09:17:42;;;;;;;2.25;1.90;;;;;;;25.56;35.15;99798.25;4994889;28;20180;-70
2023/07/05 09:20:28;;;;;;;3.53;1.90;;;;;;;25.00;36.80;99798.09;4985157;28;20192;-68
2023/07/05 09:22:57;;;;;;;3.53;1.75;;;;;;;24.70;38.62;99803.44;5005244;28;20350;-69
2023/07/05 09:25:24;;;;;;;3.85;2.03;;;;;;;23.60;40.16;99797.72;4993332;28;20186;-69
2023/07/05 09:27:56;;;;;;;3.88;1.60;;;;;;;24.71;40.51;99812.94;5004234;28;20642;-69
2023/07/05 09:30:26;;;;;;;3.58;1.40;;;;;;;25.26;37.83;99813.34;4986268;28;20655;-68
2023/07/05 09:33:16;;;;;;;3.45;1.73;;;;;;;26.19;36.07;99816.00;5005775;28;20179;-70
2023/07/05 09:35:44;;;;;;;4.75;1.73;;;;;;;26.41;33.80;99811.47;4992609;28;20210;-69
2023/07/05 09:38:19;;;;;;;4.20;1.73;;;;;;;27.18;32.79;99813.22;5003679;28;20186;-70
2023/07/05 09:40:50;;;;;;;3.33;1.38;;;;;;;27.61;32.96;99812.06;5008552;28;20240;-70
2023/07/05 09:43:30;;;;;;;3.72;1.10;;;;;;;28.59;29.56;99827.19;5008809;28;20186;-70
2023/07/05 09:45:57;;;;;;;2.08;1.50;;;;;;;27.66;31.41;99815.72;5011644;28;20284;-68
2023/07/05 09:48:23;;;;;;;5.53;1.50;;;;;;;27.26;32.33;99839.41;5012517;28;20210;-69
2023/07/05 09:50:51;;;;;;;6.47;1.60;;;;;;;27.20;31.39;99829.66;5003592;28;20233;-69
2023/07/05 09:53:40;;;;;;;2.53;1.48;;;;;;;27.00;31.43;99824.31;5021251;28;20190;-69
2023/07/05 09:56:09;;;;;;;2.38;1.10;;;;;;;27.29;30.78;99830.28;5010731;28;20538;-69
2023/07/05 09:58:35;;;;;;;3.50;1.50;;;;;;;27.78;31.04;99844.97;5011757;28;20190;-70
2023/07/05 10:01:04;;;;;;;5.43;1.60;;;;;;;28.89;31.52;99841.75;5002228;28;20241;-69
2023/07/05 10:03:55;;;;;;;5.07;1.55;;;;;;;28.65;28.58;99847.53;5010219;28;20182;-69
2023/07/05 10:06:24;;;;;;;2.72;1.50;;;;;;;29.22;28.37;99854.00;5010879;28;20194;-69
2023/07/05 10:08:51;;;;;;;2.05;1.42;;;;;;;29.38;28.37;99853.53;5009598;28;20548;-69
2023/07/05 10:11:26;;;;;;;2.10;1.40;;;;;;;28.75;29.16;99857.72;5001423;28;20229;-69
2023/07/05 10:14:16;;;;;;;2.97;1.67;;;;;;;28.97;30.97;99852.09;4985470;28;20191;-69
2023/07/05 10:16:51;;;;;;;2.65;1.50;;;;;;;27.54;30.04;99870.19;4985456;28;20199;-70
2023/07/05 10:19:31;;;;;;;4.65;1.58;;;;;;;26.85;31.90;99866.69;5002822;28;20523;-71
2023/07/05 10:22:14;;;;;;;1.85;1.40;;;;;;;27.54;31.23;99868.34;4984267;28;20231;-69
2023/07/05 10:24:46;;;;;;;2.03;1.13;;;;;;;29.12;29.51;99865.88;5010624;28;20187;-70
2023/07/05 10:27:35;;;;;;;5.18;1.58;;;;;;;28.78;29.16;99875.00;5010837;28;20248;-70
2023/07/05 10:30:13;;;;;;;4.22;1.60;;;;;;;26.79;32.77;99870.91;5005178;28;20287;-70
2023/07/05 10:32:40;;;;;;;3.78;1.20;;;;;;;25.64;34.56;99873.72;5000706;28;20260;-69
2023/07/05 10:35:24;;;;;;;1.45;1.23;;;;;;;24.38;36.07;99877.19;5010663;28;20194;-70
2023/07/05 10:37:50;;;;;;;1.70;1.20;;;;;;;26.09;33.36;99878.78;5001877;28;20187;-69
2023/07/05 10:40:16;;;;;;;1.63;1.10;;;;;;;27.90;31.11;99870.78;5003026;28;20189;-70
2023/07/05 10:42:49;;;;;;;1.52;1.30;;;;;;;28.93;29.51;99887.97;5024320;28;20522;-71
2023/07/05 10:45:17;;;;;;;1.80;0.80;;;;;;;27.59;30.65;99875.66;5011522;28;20210;-71
2023/07/05 10:47:46;;;;;;;2.80;1.05;;;;;;;25.49;32.53;99875.56;5009714;28;20211;-70
2023/07/05 10:50:14;;;;;;;2.40;1.10;;;;;;;24.90;34.97;99870.22;4983304;28;20224;-69
2023/07/05 10:52:51;;;;;;;2.33;1.15;;;;;;;24.21;36.35;99881.75;5005603;28;20187;-69
2023/07/05 10:55:23;;;;;;;2.90;1.35;;;;;;;23.71;37.99;99846.38;4991961;28;20190;-68
2023/07/05 10:57:57;;;;;;;5.63;1.40;;;;;;;23.20;38.53;99872.09;4992034;28;20643;-69
2023/07/05 11:00:28;;;;;;;2.60;1.30;;;;;;;22.93;39.68;99877.78;4974830;28;20232;-69
2023/07/05 11:03:16;;;;;;;3.47;1.40;;;;;;;22.22;40.40;99831.25;5003929;28;20273;-69
2023/07/05 11:05:49;;;;;;;2.43;1.50;;;;;;;21.89;42.16;99854.84;4979791;28;20183;-69
2023/07/05 11:08:37;;;;;;;3.03;1.47;;;;;;;22.17;43.46;99841.41;4992451;28;20234;-68
2023/07/05 11:11:15;;;;;;;5.10;1.80;;;;;;;22.49;40.64;99864.16;4990374;28;20767;-70
2023/07/05 11:13:41;;;;;;;3.63;2.10;;;;;;;22.54;40.94;99850.56;4991134;28;20198;-69
2023/07/05 11:16:06;;;;;;;6.47;1.73;;;;;;;22.19;40.59;99844.66;4989888;28;20281;-69
2023/07/05 11:18:33;;;;;;;2.33;1.20;;;;;;;22.18;41.74;99848.31;4999023;28;20712;-69
2023/07/05 11:20:59;;;;;;;3.33;1.23;;;;;;;21.98;42.28;99851.25;4989634;28;20234;-69
2023/07/05 11:23:43;;;;;;;3.20;1.30;;;;;;;21.85;41.53;99851.72;4999672;28;20190;-70
2023/07/05 11:26:10;;;;;;;5.63;1.43;;;;;;;21.82;40.74;99864.31;4991599;28;20274;-70
2023/07/05 11:28:39;;;;;;;2.87;1.30;;;;;;;22.02;43.24;99844.69;5004538;28;20223;-69
2023/07/05 11:31:07;;;;;;;4.77;1.77;;;;;;;22.06;42.49;99851.22;4961722;28;20258;-69
2023/07/05 11:33:32;;;;;;;7.03;1.70;;;;;;;21.91;41.15;99865.97;4990876;28;20179;-69
2023/07/05 11:36:01;;;;;;;9.37;1.60;;;;;;;21.66;41.54;99865.97;4991319;28;20279;-69
2023/07/05 11:38:36;;;;;;;4.47;1.60;;;;;;;21.70;41.88;99858.59;4996899;28;20207;-69